UAE81 OMDB-LFLL
Flight info
| Callsign | UAE81 |
|---|---|
| Flight time | N/A |
| Altitude | 38000 |
| Route | KUTLI L519 ATUDO M318 GOLGU M550 RIBOT DCT MIGMA DCT SITUK M321 IVONU Z710 GAS G662 HIL T540 ENABI L550 NOVPA J981 DATOK L550 GENIV L324 LAKTO DCT OTHON DCT VAXOS DCT RDS UL609 MES DCT DISOR DCT LONTA UL608 DOLEV DCT ROTAR DCT EVANO DCT RONOP DCT GIGUS Z40 AMVAR |
| Aircraft | A359/H-SDE2E3GHIJ3J4J5LM1ORWXY/LB1D1 |
Departure
| Time | 2026-05-05 11:18 |
|---|---|
| Airport | Dubai International Airport (OMDB) |
Arrival
| Time | N/A |
|---|---|
| Airport | Lyon Saint-Exupéry Airport (LFLL) |
| Time | Latitude | Longitude | Altitude | Speed | Heading |
|---|---|---|---|---|---|
| 2026-05-05 10:35 | 25.24535 | 55.36563 | 27 ft | 0 kts | 357° |
| 2026-05-05 10:59 | 25.24534 | 55.36563 | 27 ft | 1 kts | 357° |
| 2026-05-05 10:59 | 25.24509 | 55.36564 | 26 ft | 4 kts | 357° |
| 2026-05-05 10:59 | 25.24484 | 55.36565 | 25 ft | 2 kts | 357° |
| 2026-05-05 11:00 | 25.24462 | 55.36561 | 27 ft | 4 kts | 47° |
| 2026-05-05 11:00 | 25.24451 | 55.36536 | 26 ft | 4 kts | 85° |
| 2026-05-05 11:00 | 25.24453 | 55.36508 | 26 ft | 4 kts | 106° |
| 2026-05-05 11:00 | 25.24462 | 55.36481 | 25 ft | 4 kts | 120° |
| 2026-05-05 11:01 | 25.24474 | 55.36460 | 25 ft | 4 kts | 122° |
| 2026-05-05 11:01 | 25.24485 | 55.36441 | 25 ft | 0 kts | 122° |
| 2026-05-05 11:03 | 25.24482 | 55.36446 | 27 ft | 3 kts | 121° |
| 2026-05-05 11:03 | 25.24459 | 55.36492 | 27 ft | 9 kts | 116° |
| 2026-05-05 11:03 | 25.24448 | 55.36551 | 27 ft | 8 kts | 89° |
| 2026-05-05 11:04 | 25.24462 | 55.36611 | 27 ft | 9 kts | 70° |
| 2026-05-05 11:04 | 25.24502 | 55.36670 | 27 ft | 10 kts | 38° |
| 2026-05-05 11:04 | 25.24554 | 55.36708 | 27 ft | 11 kts | 32° |
| 2026-05-05 11:04 | 25.24601 | 55.36741 | 27 ft | 12 kts | 33° |
| 2026-05-05 11:05 | 25.24670 | 55.36787 | 27 ft | 12 kts | 32° |
| 2026-05-05 11:05 | 25.24733 | 55.36830 | 28 ft | 9 kts | 32° |
| 2026-05-05 11:05 | 25.24789 | 55.36870 | 28 ft | 10 kts | 37° |
| 2026-05-05 11:05 | 25.24806 | 55.36937 | 28 ft | 9 kts | 107° |
| 2026-05-05 11:06 | 25.24769 | 55.37003 | 28 ft | 11 kts | 123° |
| 2026-05-05 11:06 | 25.24726 | 55.37077 | 28 ft | 12 kts | 121° |
| 2026-05-05 11:06 | 25.24681 | 55.37159 | 28 ft | 13 kts | 121° |
| 2026-05-05 11:06 | 25.24629 | 55.37250 | 28 ft | 15 kts | 122° |
| 2026-05-05 11:07 | 25.24573 | 55.37351 | 28 ft | 14 kts | 122° |
| 2026-05-05 11:07 | 25.24523 | 55.37438 | 28 ft | 14 kts | 122° |
| 2026-05-05 11:07 | 25.24469 | 55.37535 | 27 ft | 16 kts | 122° |
| 2026-05-05 11:07 | 25.24418 | 55.37625 | 27 ft | 12 kts | 121° |
| 2026-05-05 11:08 | 25.24383 | 55.37692 | 28 ft | 9 kts | 114° |
| 2026-05-05 11:08 | 25.24396 | 55.37755 | 26 ft | 9 kts | 44° |
| 2026-05-05 11:08 | 25.24448 | 55.37792 | 29 ft | 9 kts | 33° |
| 2026-05-05 11:08 | 25.24499 | 55.37830 | 30 ft | 9 kts | 34° |
| 2026-05-05 11:09 | 25.24552 | 55.37868 | 30 ft | 10 kts | 34° |
| 2026-05-05 11:09 | 25.24612 | 55.37914 | 29 ft | 11 kts | 35° |
| 2026-05-05 11:09 | 25.24671 | 55.37959 | 29 ft | 6 kts | 32° |
| 2026-05-05 11:09 | 25.24684 | 55.37968 | 29 ft | 0 kts | 32° |
| 2026-05-05 11:15 | 25.24690 | 55.37972 | 29 ft | 4 kts | 32° |
| 2026-05-05 11:16 | 25.24715 | 55.37989 | 30 ft | 4 kts | 32° |
| 2026-05-05 11:16 | 25.24738 | 55.38005 | 30 ft | 4 kts | 32° |
| 2026-05-05 11:16 | 25.24759 | 55.38019 | 31 ft | 4 kts | 32° |
| 2026-05-05 11:16 | 25.24786 | 55.38034 | 31 ft | 5 kts | 12° |
| 2026-05-05 11:17 | 25.24814 | 55.38007 | 31 ft | 6 kts | 304° |
| 2026-05-05 11:17 | 25.24815 | 55.38005 | 31 ft | 0 kts | 304° |
| 2026-05-05 11:17 | 25.24820 | 55.37998 | 31 ft | 9 kts | 304° |
| 2026-05-05 11:17 | 25.24963 | 55.37745 | 32 ft | 71 kts | 301° |
| 2026-05-05 11:18 | 25.25326 | 55.37097 | 32 ft | 126 kts | 302° |
| 2026-05-05 11:18 | 25.25871 | 55.36115 | 66 ft | 169 kts | 300° |
| 2026-05-05 11:18 | 25.26414 | 55.35003 | 747 ft | 165 kts | 300° |
| 2026-05-05 11:18 | 25.26996 | 55.33849 | 1097 ft | 182 kts | 305° |
| 2026-05-05 11:19 | 25.27723 | 55.32596 | 1389 ft | 202 kts | 305° |
| 2026-05-05 11:19 | 25.28493 | 55.31267 | 1713 ft | 213 kts | 305° |
| 2026-05-05 11:19 | 25.29203 | 55.29755 | 1885 ft | 235 kts | 288° |
| 2026-05-05 11:19 | 25.29078 | 55.27930 | 2223 ft | 247 kts | 247° |
| 2026-05-05 11:20 | 25.28334 | 55.26208 | 2794 ft | 249 kts | 241° |
| 2026-05-05 11:20 | 25.27548 | 55.24542 | 3438 ft | 247 kts | 241° |
| 2026-05-05 11:20 | 25.26761 | 55.22819 | 4062 ft | 248 kts | 242° |
| 2026-05-05 11:20 | 25.26001 | 55.21104 | 4670 ft | 249 kts | 242° |
| 2026-05-05 11:21 | 25.25255 | 55.19395 | 5229 ft | 251 kts | 243° |
| 2026-05-05 11:21 | 25.24503 | 55.17647 | 5795 ft | 253 kts | 243° |
| 2026-05-05 11:21 | 25.23741 | 55.15881 | 6333 ft | 256 kts | 242° |
| 2026-05-05 11:21 | 25.22852 | 55.14117 | 6628 ft | 271 kts | 238° |
| 2026-05-05 11:22 | 25.21855 | 55.12268 | 6888 ft | 287 kts | 237° |
| 2026-05-05 11:22 | 25.20828 | 55.10351 | 7350 ft | 294 kts | 238° |
| 2026-05-05 11:22 | 25.20180 | 55.09023 | 7739 ft | 296 kts | 243° |
| 2026-05-05 11:22 | 25.19646 | 55.07715 | 8142 ft | 297 kts | 246° |
| 2026-05-05 11:23 | 25.18849 | 55.05603 | 8765 ft | 299 kts | 246° |
| 2026-05-05 11:23 | 25.18060 | 55.03479 | 9411 ft | 301 kts | 246° |
| 2026-05-05 11:23 | 25.17259 | 55.01322 | 9984 ft | 305 kts | 246° |
| 2026-05-05 11:23 | 25.16441 | 54.99128 | 10386 ft | 316 kts | 247° |
| 2026-05-05 11:24 | 25.15562 | 54.96832 | 10612 ft | 333 kts | 244° |
| 2026-05-05 11:24 | 25.14254 | 54.94666 | 10840 ft | 348 kts | 225° |
| 2026-05-05 11:24 | 25.12218 | 54.93166 | 11027 ft | 361 kts | 200° |
| 2026-05-05 11:24 | 25.09723 | 54.92650 | 11248 ft | 372 kts | 181° |
| 2026-05-05 11:25 | 25.07094 | 54.92631 | 11444 ft | 384 kts | 178° |
| 2026-05-05 11:25 | 25.04397 | 54.92671 | 11797 ft | 390 kts | 179° |
| 2026-05-05 11:25 | 25.01680 | 54.92704 | 12289 ft | 391 kts | 179° |
| 2026-05-05 11:25 | 25.00741 | 54.92741 | 12443 ft | 393 kts | 176° |
| 2026-05-05 11:26 | 24.99352 | 54.92835 | 12653 ft | 395 kts | 175° |
| 2026-05-05 11:26 | 24.95661 | 54.93143 | 13180 ft | 401 kts | 175° |
| 2026-05-05 11:26 | 24.93810 | 54.93291 | 13457 ft | 403 kts | 176° |
| 2026-05-05 11:26 | 24.91003 | 54.93505 | 13884 ft | 405 kts | 176° |
| 2026-05-05 11:27 | 24.88185 | 54.93637 | 14343 ft | 405 kts | 182° |
| 2026-05-05 11:27 | 24.85421 | 54.93102 | 14778 ft | 405 kts | 200° |
| 2026-05-05 11:27 | 24.82813 | 54.91927 | 15183 ft | 406 kts | 206° |
| 2026-05-05 11:27 | 24.80294 | 54.90503 | 15629 ft | 407 kts | 210° |
| 2026-05-05 11:28 | 24.77821 | 54.88971 | 16059 ft | 409 kts | 212° |
| 2026-05-05 11:28 | 24.75351 | 54.87401 | 16511 ft | 411 kts | 212° |
| 2026-05-05 11:28 | 24.72867 | 54.85833 | 16947 ft | 413 kts | 211° |
| 2026-05-05 11:28 | 24.70360 | 54.84279 | 17377 ft | 415 kts | 210° |
| 2026-05-05 11:29 | 24.67826 | 54.82736 | 17826 ft | 417 kts | 211° |
| 2026-05-05 11:29 | 24.65299 | 54.81157 | 18247 ft | 419 kts | 212° |
| 2026-05-05 11:29 | 24.62782 | 54.79537 | 18635 ft | 420 kts | 212° |
| 2026-05-05 11:29 | 24.60256 | 54.77897 | 18956 ft | 423 kts | 212° |
| 2026-05-05 11:30 | 24.57710 | 54.76245 | 19322 ft | 426 kts | 212° |
| 2026-05-05 11:30 | 24.55146 | 54.74590 | 19676 ft | 428 kts | 212° |
| 2026-05-05 11:30 | 24.52568 | 54.72935 | 20055 ft | 431 kts | 212° |
| 2026-05-05 11:30 | 24.49973 | 54.71272 | 20433 ft | 433 kts | 212° |
| 2026-05-05 11:31 | 24.47364 | 54.69596 | 20812 ft | 436 kts | 212° |
| 2026-05-05 11:31 | 24.44743 | 54.67911 | 21190 ft | 438 kts | 212° |